Time;durP1;ratioP1;P1;durP2;ratioP2;P2;SDS_P1;SDS_P2;PMS_P1;PMS_P2;Temp;Humidity;BMP_temperature;BMP_pressure;BME280_temperature;BME280_humidity;BME280_pressure;Samples;Min_cycle;Max_cycle;Signal;HPM_P1;HPM_P2
2021/12/18 00:01:16;;;;;;;14.63;11.02;;;;;;;;;;5305230;28;20038;-73
2021/12/18 00:03:48;;;;;;;20.17;13.13;;;;;;;;;;5305311;28;20012;-71
2021/12/18 00:06:20;;;;;;;18.00;13.05;;;;;;;;;;5305661;28;20035;-71
2021/12/18 00:08:51;;;;;;;17.05;12.15;;;;;;;;;;5305827;28;20024;-72
2021/12/18 00:11:22;;;;;;;15.22;11.38;;;;;;;;;;5306198;28;20020;-72
2021/12/18 00:13:53;;;;;;;17.08;12.13;;;;;;;;;;5305085;28;20016;-71
2021/12/18 00:16:24;;;;;;;14.93;10.35;;;;;;;;;;5306246;28;20345;-72
2021/12/18 00:18:57;;;;;;;14.98;10.55;;;;;;;;;;5305540;28;20024;-72
2021/12/18 00:21:29;;;;;;;16.23;11.07;;;;;;;;;;5305238;28;20104;-72
2021/12/18 00:24:00;;;;;;;17.00;11.77;;;;;;;;;;5305266;28;20106;-72
2021/12/18 00:26:32;;;;;;;18.67;12.05;;;;;;;;;;5306092;28;20080;-71
2021/12/18 00:29:03;;;;;;;16.40;10.82;;;;;;;;;;5304526;28;20290;-72
2021/12/18 00:31:34;;;;;;;14.60;9.93;;;;;;;;;;5305857;28;20024;-74
2021/12/18 00:34:05;;;;;;;14.43;9.57;;;;;;;;;;5303974;28;20061;-71
2021/12/18 00:36:36;;;;;;;13.30;8.94;;;;;;;;;;5305388;28;20463;-72
2021/12/18 00:39:07;;;;;;;12.75;8.52;;;;;;;;;;5304460;28;20047;-72
2021/12/18 00:44:16;;;;;;;13.95;8.77;;;;;;;;;;5305535;28;20130;-72
2021/12/18 00:46:48;;;;;;;12.77;7.80;;;;;;;;;;5304854;28;20148;-72
2021/12/18 00:49:19;;;;;;;12.30;8.43;;;;;;;;;;5304801;28;20028;-71
2021/12/18 00:51:50;;;;;;;13.05;8.23;;;;;;;;;;5304779;28;20455;-71
2021/12/18 00:54:21;;;;;;;13.77;8.07;;;;;;;;;;5305059;28;20394;-71
2021/12/18 00:56:53;;;;;;;12.38;7.03;;;;;;;;;;5301761;28;20019;-72
2021/12/18 00:59:24;;;;;;;12.27;7.22;;;;;;;;;;5303353;28;20024;-72
2021/12/18 01:01:55;;;;;;;13.80;8.07;;;;;;;;;;5303098;28;20526;-71
2021/12/18 01:04:27;;;;;;;11.86;7.60;;;;;;;;;;5303428;28;20020;-72
2021/12/18 01:06:58;;;;;;;11.40;7.28;;;;;;;;;;5303084;28;20035;-71
2021/12/18 01:09:47;;;;;;;11.82;6.28;;;;;;;;;;5303144;28;20348;-72
2021/12/18 01:12:18;;;;;;;10.93;6.60;;;;;;;;;;5305432;28;20460;-72
2021/12/18 01:15:04;;;;;;;9.85;6.25;;;;;;;;;;5304612;28;20069;-71
2021/12/18 01:23:16;;;;;;;9.32;5.57;;;;;;;;;;5304864;28;20475;-72
2021/12/18 01:25:47;;;;;;;10.00;5.43;;;;;;;;;;5304229;28;20028;-72
2021/12/18 01:28:18;;;;;;;10.65;6.00;;;;;;;;;;5304691;28;20024;-72
2021/12/18 01:30:50;;;;;;;10.52;6.13;;;;;;;;;;5301492;28;20440;-72
2021/12/18 01:33:21;;;;;;;10.45;6.53;;;;;;;;;;5304753;28;20016;-72
2021/12/18 01:35:53;;;;;;;8.82;4.97;;;;;;;;;;5304008;28;20081;-72
2021/12/18 01:38:24;;;;;;;11.75;5.80;;;;;;;;;;5303820;28;20008;-72
2021/12/18 01:40:56;;;;;;;8.27;5.32;;;;;;;;;;5303794;28;20027;-72
2021/12/18 01:44:33;;;;;;;9.85;6.00;;;;;;;;;;5304331;28;20051;-72
2021/12/18 01:46:46;;;;;;;7.78;5.22;;;;;;;;;;5303115;28;20131;-72
2021/12/18 01:52:20;;;;;;;9.93;5.40;;;;;;;;;;5303432;28;20459;-71
2021/12/18 01:54:52;;;;;;;8.80;5.10;;;;;;;;;;5303651;28;20107;-71
2021/12/18 01:57:23;;;;;;;9.23;5.53;;;;;;;;;;5304175;28;20511;-72
2021/12/18 01:59:54;;;;;;;10.77;6.95;;;;;;;;;;5302581;28;20379;-72
2021/12/18 02:02:25;;;;;;;9.10;6.05;;;;;;;;;;5304311;28;20024;-71
2021/12/18 02:04:57;;;;;;;9.63;5.82;;;;;;;;;;5303286;28;20079;-71
2021/12/18 02:07:28;;;;;;;9.20;5.90;;;;;;;;;;5303282;28;20356;-72
2021/12/18 02:10:06;;;;;;;9.07;5.78;;;;;;;;;;5303316;28;20027;-71
2021/12/18 02:12:49;;;;;;;9.00;5.18;;;;;;;;;;5302684;28;20051;-72
2021/12/18 02:21:10;;;;;;;11.48;6.65;;;;;;;;;;5302354;28;20024;-71
2021/12/18 02:23:42;;;;;;;11.35;7.20;;;;;;;;;;5303071;28;20058;-72
2021/12/18 02:26:13;;;;;;;11.27;7.25;;;;;;;;;;5303643;28;20478;-71
2021/12/18 02:28:47;;;;;;;13.48;6.93;;;;;;;;;;5302066;28;20085;-72
2021/12/18 02:31:19;;;;;;;13.07;8.20;;;;;;;;;;5303733;28;20020;-71
2021/12/18 02:33:50;;;;;;;12.95;7.10;;;;;;;;;;5302209;28;20030;-71
2021/12/18 02:36:24;;;;;;;10.20;7.07;;;;;;;;;;5303549;28;20031;-71
2021/12/18 02:41:44;;;;;;;11.02;7.07;;;;;;;;;;5302686;28;20032;-71
2021/12/18 02:44:16;;;;;;;10.48;7.30;;;;;;;;;;5303187;28;20398;-71
2021/12/18 02:46:47;;;;;;;13.40;7.38;;;;;;;;;;5302627;28;20036;-72
2021/12/18 02:49:18;;;;;;;12.72;9.28;;;;;;;;;;5302415;28;20020;-72
2021/12/18 02:51:49;;;;;;;13.52;8.43;;;;;;;;;;5302403;28;20043;-71
2021/12/18 02:54:20;;;;;;;13.82;8.65;;;;;;;;;;5303052;28;20365;-71
2021/12/18 02:56:52;;;;;;;12.77;8.75;;;;;;;;;;5301850;28;20815;-71
2021/12/18 02:59:24;;;;;;;14.75;8.95;;;;;;;;;;5303028;28;20274;-72
2021/12/18 03:02:02;;;;;;;14.20;8.75;;;;;;;;;;5301364;28;20016;-71
2021/12/18 03:04:35;;;;;;;15.20;9.88;;;;;;;;;;5302124;28;20063;-71
2021/12/18 03:07:09;;;;;;;13.93;8.20;;;;;;;;;;5302792;28;20463;-72
2021/12/18 03:18:58;;;;;;;15.20;9.35;;;;;;;;;;5301672;28;20371;-72
2021/12/18 03:22:02;;;;;;;13.07;7.97;;;;;;;;;;5302580;28;20024;-71
2021/12/18 03:26:52;;;;;;;13.73;8.20;;;;;;;;;;5302897;28;20064;-73
2021/12/18 03:29:23;;;;;;;13.82;8.05;;;;;;;;;;5302707;28;20506;-71
2021/12/18 03:31:54;;;;;;;11.60;7.13;;;;;;;;;;5301546;28;20031;-71
2021/12/18 03:34:25;;;;;;;11.68;7.68;;;;;;;;;;5302862;28;20299;-72
2021/12/18 03:36:57;;;;;;;12.92;7.54;;;;;;;;;;5301488;28;20024;-72
2021/12/18 03:39:28;;;;;;;12.63;7.35;;;;;;;;;;5302619;28;20061;-72
2021/12/18 03:41:59;;;;;;;13.52;8.00;;;;;;;;;;5301998;28;20470;-71
2021/12/18 03:44:30;;;;;;;12.63;8.20;;;;;;;;;;5301625;28;20487;-73
2021/12/18 03:47:02;;;;;;;14.38;8.35;;;;;;;;;;5302120;28;20054;-71
2021/12/18 03:49:33;;;;;;;12.85;8.00;;;;;;;;;;5302902;28;20054;-72
2021/12/18 03:52:04;;;;;;;12.50;8.10;;;;;;;;;;5301232;28;20394;-72
2021/12/18 03:54:36;;;;;;;11.95;7.40;;;;;;;;;;5302742;28;20016;-72
2021/12/18 03:57:07;;;;;;;12.55;7.72;;;;;;;;;;5302281;28;20031;-72
2021/12/18 03:59:38;;;;;;;12.50;7.70;;;;;;;;;;5301008;28;20093;-72
2021/12/18 04:02:09;;;;;;;12.20;7.50;;;;;;;;;;5302535;28;20637;-72
2021/12/18 04:04:40;;;;;;;11.16;7.48;;;;;;;;;;5301694;28;20062;-73
2021/12/18 04:07:12;;;;;;;14.55;7.90;;;;;;;;;;5301844;28;20433;-73
2021/12/18 04:09:43;;;;;;;12.95;7.75;;;;;;;;;;5302072;28;20027;-72
2021/12/18 04:12:15;;;;;;;11.32;7.32;;;;;;;;;;5301831;28;20024;-70
2021/12/18 04:14:46;;;;;;;13.40;8.07;;;;;;;;;;5302199;28;20030;-71
2021/12/18 04:17:17;;;;;;;12.98;8.80;;;;;;;;;;5306163;28;20032;-71
2021/12/18 04:19:49;;;;;;;13.16;7.94;;;;;;;;;;5304906;28;20262;-71
2021/12/18 04:22:20;;;;;;;12.65;8.35;;;;;;;;;;5306053;28;20028;-71
2021/12/18 04:24:51;;;;;;;12.27;7.35;;;;;;;;;;5305339;28;20606;-72
2021/12/18 04:27:22;;;;;;;14.30;8.68;;;;;;;;;;5305099;28;20804;-71
2021/12/18 04:29:53;;;;;;;12.92;7.80;;;;;;;;;;5305190;28;20320;-72
2021/12/18 04:32:24;;;;;;;13.02;7.45;;;;;;;;;;5306019;28;20408;-71
2021/12/18 04:34:55;;;;;;;13.88;8.25;;;;;;;;;;5304644;28;20024;-71
2021/12/18 04:37:27;;;;;;;11.85;7.93;;;;;;;;;;5305974;28;20095;-71
2021/12/18 04:39:58;;;;;;;12.75;7.55;;;;;;;;;;5305078;28;20266;-71
2021/12/18 04:42:29;;;;;;;14.00;7.97;;;;;;;;;;5304837;28;20074;-71
2021/12/18 04:45:00;;;;;;;13.06;7.80;;;;;;;;;;5305127;28;20027;-72
2021/12/18 04:47:31;;;;;;;13.48;8.00;;;;;;;;;;5304932;28;20012;-71
2021/12/18 04:50:03;;;;;;;13.73;8.00;;;;;;;;;;5304944;28;20074;-71
2021/12/18 04:52:34;;;;;;;14.55;7.32;;;;;;;;;;5305405;28;20081;-71
2021/12/18 04:55:06;;;;;;;12.85;8.48;;;;;;;;;;5304200;28;20020;-71
2021/12/18 04:57:37;;;;;;;12.88;8.30;;;;;;;;;;5305070;28;20046;-72
2021/12/18 05:00:10;;;;;;;13.90;7.68;;;;;;;;;;5305250;28;20012;-72
2021/12/18 05:02:43;;;;;;;14.27;8.38;;;;;;;;;;5303868;28;20020;-72
2021/12/18 05:05:15;;;;;;;12.20;7.78;;;;;;;;;;5305105;28;20378;-72
2021/12/18 05:07:46;;;;;;;14.05;7.78;;;;;;;;;;5304612;28;20028;-71
2021/12/18 05:10:17;;;;;;;13.07;8.18;;;;;;;;;;5304435;28;20383;-71
2021/12/18 05:12:48;;;;;;;13.68;8.15;;;;;;;;;;5304601;28;20502;-71
2021/12/18 05:15:19;;;;;;;15.13;8.15;;;;;;;;;;5304275;28;20270;-72
2021/12/18 05:17:50;;;;;;;13.00;8.13;;;;;;;;;;5304554;28;20270;-71
2021/12/18 05:20:22;;;;;;;12.52;7.80;;;;;;;;;;5304857;28;20275;-72
2021/12/18 05:22:53;;;;;;;13.93;7.07;;;;;;;;;;5303523;28;20130;-72
2021/12/18 05:25:24;;;;;;;13.93;7.55;;;;;;;;;;5304744;28;20641;-71
2021/12/18 05:27:55;;;;;;;11.57;7.40;;;;;;;;;;5303514;28;20274;-71
2021/12/18 05:30:26;;;;;;;13.45;7.43;;;;;;;;;;5303925;28;20285;-71
2021/12/18 05:32:58;;;;;;;12.60;7.70;;;;;;;;;;5304289;28;20016;-72
2021/12/18 05:35:30;;;;;;;12.32;7.20;;;;;;;;;;5304784;28;20028;-72
2021/12/18 05:38:04;;;;;;;13.30;7.18;;;;;;;;;;5303221;28;20447;-71
2021/12/18 05:40:37;;;;;;;15.95;8.68;;;;;;;;;;5304497;28;20518;-71
2021/12/18 05:43:09;;;;;;;16.23;8.38;;;;;;;;;;5304246;28;20052;-71
2021/12/18 05:45:40;;;;;;;19.48;9.95;;;;;;;;;;5302824;28;20494;-71
2021/12/18 05:48:11;;;;;;;21.10;10.20;;;;;;;;;;5304187;28;20477;-71
2021/12/18 05:50:45;;;;;;;23.48;11.73;;;;;;;;;;5302956;28;20364;-72
2021/12/18 05:53:18;;;;;;;22.80;11.05;;;;;;;;;;5304319;28;20113;-71
2021/12/18 05:55:49;;;;;;;24.25;12.00;;;;;;;;;;5303533;28;20024;-71
2021/12/18 05:58:20;;;;;;;23.88;11.68;;;;;;;;;;5303388;28;20463;-71
2021/12/18 06:00:51;;;;;;;24.20;12.05;;;;;;;;;;5303566;28;20058;-71
2021/12/18 06:03:22;;;;;;;22.70;10.42;;;;;;;;;;5303982;28;20286;-71
2021/12/18 06:05:53;;;;;;;23.05;11.57;;;;;;;;;;5302633;28;20052;-71
2021/12/18 06:08:26;;;;;;;22.73;12.32;;;;;;;;;;5304064;28;20020;-72
2021/12/18 06:11:04;;;;;;;18.95;10.13;;;;;;;;;;5303449;28;20534;-71
2021/12/18 06:13:35;;;;;;;21.73;10.88;;;;;;;;;;5303233;28;20057;-71
2021/12/18 06:16:07;;;;;;;21.48;10.90;;;;;;;;;;5303161;28;20095;-71
2021/12/18 06:18:44;;;;;;;19.13;9.95;;;;;;;;;;5302343;28;20149;-71
2021/12/18 06:21:16;;;;;;;21.42;10.20;;;;;;;;;;5303861;28;20523;-70
2021/12/18 06:23:47;;;;;;;22.55;11.13;;;;;;;;;;5303161;28;20154;-72
2021/12/18 06:26:19;;;;;;;17.70;9.05;;;;;;;;;;5302730;28;20067;-71
2021/12/18 06:28:50;;;;;;;18.25;8.57;;;;;;;;;;5303202;28;20012;-71
2021/12/18 06:31:21;;;;;;;17.65;9.40;;;;;;;;;;5303413;28;20016;-71
2021/12/18 06:33:53;;;;;;;19.23;9.02;;;;;;;;;;5302134;28;20016;-71
2021/12/18 06:36:24;;;;;;;16.98;8.60;;;;;;;;;;5303413;28;20035;-71
2021/12/18 06:38:55;;;;;;;16.55;8.80;;;;;;;;;;5301773;28;20126;-71
2021/12/18 06:41:26;;;;;;;19.60;9.56;;;;;;;;;;5302752;28;20550;-71
2021/12/18 06:43:58;;;;;;;18.13;9.25;;;;;;;;;;5302673;28;20047;-71
2021/12/18 06:46:29;;;;;;;20.27;10.68;;;;;;;;;;5303254;28;20332;-71
2021/12/18 06:49:00;;;;;;;21.60;10.68;;;;;;;;;;5302082;28;20019;-72
2021/12/18 06:51:31;;;;;;;19.90;10.02;;;;;;;;;;5303031;28;20020;-71
2021/12/18 06:54:03;;;;;;;19.23;9.70;;;;;;;;;;5302056;28;20022;-71
2021/12/18 06:56:34;;;;;;;19.88;8.63;;;;;;;;;;5303289;28;20028;-71
2021/12/18 06:59:05;;;;;;;17.83;8.35;;;;;;;;;;5302746;28;20107;-71
2021/12/18 07:01:36;;;;;;;19.40;8.60;;;;;;;;;;5301936;28;20270;-71
2021/12/18 07:04:07;;;;;;;14.48;7.44;;;;;;;;;;5302702;28;20086;-72
2021/12/18 07:06:39;;;;;;;14.45;6.72;;;;;;;;;;5302389;28;20425;-71
2021/12/18 07:09:10;;;;;;;15.85;7.25;;;;;;;;;;5302419;28;20333;-72
2021/12/18 07:11:41;;;;;;;15.00;7.10;;;;;;;;;;5302447;28;20055;-72
2021/12/18 07:14:15;;;;;;;17.52;8.07;;;;;;;;;;5302958;28;20016;-72
2021/12/18 07:16:46;;;;;;;18.83;7.93;;;;;;;;;;5301694;28;20375;-71
2021/12/18 07:19:17;;;;;;;16.85;7.10;;;;;;;;;;5303034;28;20020;-72
2021/12/18 07:21:48;;;;;;;15.10;6.95;;;;;;;;;;5301564;28;20027;-72
2021/12/18 07:24:20;;;;;;;17.05;7.38;;;;;;;;;;5302805;28;20262;-72
2021/12/18 07:26:51;;;;;;;14.50;6.53;;;;;;;;;;5301988;28;20111;-72
2021/12/18 07:29:22;;;;;;;13.93;5.97;;;;;;;;;;5301824;28;20031;-72
2021/12/18 07:31:54;;;;;;;15.82;7.47;;;;;;;;;;5302279;28;20624;-72
2021/12/18 07:34:25;;;;;;;14.25;6.90;;;;;;;;;;5302895;28;20016;-72
2021/12/18 07:36:56;;;;;;;14.28;6.44;;;;;;;;;;5301271;28;20211;-71
2021/12/18 07:39:27;;;;;;;16.58;7.72;;;;;;;;;;5302846;28;20040;-72
2021/12/18 07:41:58;;;;;;;17.05;7.70;;;;;;;;;;5302270;28;20057;-71
2021/12/18 07:44:29;;;;;;;18.20;7.03;;;;;;;;;;5301777;28;20124;-72
2021/12/18 07:47:01;;;;;;;18.26;7.06;;;;;;;;;;5301950;28;20024;-72
2021/12/18 07:49:32;;;;;;;15.57;7.55;;;;;;;;;;5302405;28;20013;-71
2021/12/18 07:52:04;;;;;;;17.40;7.10;;;;;;;;;;5305271;28;20024;-71
2021/12/18 07:54:35;;;;;;;15.80;6.82;;;;;;;;;;5306792;28;20097;-72
2021/12/18 07:57:07;;;;;;;19.73;8.00;;;;;;;;;;5305243;28;20145;-72
2021/12/18 07:59:38;;;;;;;21.13;8.40;;;;;;;;;;5305965;28;20020;-71
2021/12/18 08:02:09;;;;;;;20.35;8.00;;;;;;;;;;5306397;28;20106;-71
2021/12/18 08:04:40;;;;;;;27.60;8.45;;;;;;;;;;5305243;28;20398;-72
2021/12/18 08:07:11;;;;;;;22.00;7.72;;;;;;;;;;5306405;28;20094;-71
2021/12/18 08:09:43;;;;;;;18.66;7.54;;;;;;;;;;5305705;28;20040;-71
2021/12/18 08:12:14;;;;;;;14.56;6.84;;;;;;;;;;5305263;28;20023;-71
2021/12/18 08:14:45;;;;;;;17.75;7.80;;;;;;;;;;5305295;28;20020;-71
2021/12/18 08:17:16;;;;;;;21.67;7.95;;;;;;;;;;5306080;28;20505;-71
2021/12/18 08:19:47;;;;;;;15.43;7.00;;;;;;;;;;5305114;28;20254;-71
2021/12/18 08:22:18;;;;;;;17.80;7.40;;;;;;;;;;5306000;28;20022;-71
2021/12/18 08:24:50;;;;;;;18.20;6.86;;;;;;;;;;5305407;28;20433;-71
2021/12/18 08:27:21;;;;;;;17.85;6.95;;;;;;;;;;5305070;28;20387;-71
2021/12/18 08:29:52;;;;;;;14.77;6.57;;;;;;;;;;5305701;28;20016;-71
2021/12/18 08:32:23;;;;;;;13.43;5.32;;;;;;;;;;5305192;28;20031;-71
2021/12/18 08:34:54;;;;;;;10.68;3.97;;;;;;;;;;5305097;28;20115;-71
2021/12/18 08:37:25;;;;;;;11.55;4.90;;;;;;;;;;5305766;28;20031;-71
2021/12/18 08:39:57;;;;;;;10.07;4.72;;;;;;;;;;5304411;28;20353;-72
2021/12/18 08:42:28;;;;;;;11.46;4.76;;;;;;;;;;5305381;28;20032;-72
2021/12/18 08:44:59;;;;;;;10.25;4.50;;;;;;;;;;5305113;28;20461;-71
2021/12/18 08:47:30;;;;;;;9.38;4.18;;;;;;;;;;5304800;28;20024;-72
2021/12/18 08:50:02;;;;;;;12.05;4.18;;;;;;;;;;5304814;28;20111;-72
2021/12/18 08:52:33;;;;;;;10.13;4.40;;;;;;;;;;5305304;28;20617;-72
2021/12/18 08:55:05;;;;;;;9.82;4.10;;;;;;;;;;5304026;28;20054;-72
2021/12/18 08:57:36;;;;;;;10.23;4.00;;;;;;;;;;5305048;28;20028;-72
2021/12/18 09:00:09;;;;;;;11.77;4.38;;;;;;;;;;5304959;28;20046;-71
2021/12/18 09:02:41;;;;;;;8.60;3.90;;;;;;;;;;5302745;28;20437;-72
2021/12/18 09:05:13;;;;;;;10.55;4.60;;;;;;;;;;5305336;28;20044;-73
2021/12/18 09:07:44;;;;;;;10.50;4.18;;;;;;;;;;5303564;28;20082;-72
2021/12/18 09:10:15;;;;;;;12.18;4.43;;;;;;;;;;5305240;28;20474;-72
2021/12/18 09:12:46;;;;;;;8.63;4.30;;;;;;;;;;5304523;28;20016;-73
2021/12/18 09:15:18;;;;;;;11.95;4.60;;;;;;;;;;5304229;28;20086;-72
2021/12/18 09:17:49;;;;;;;9.80;4.20;;;;;;;;;;5304222;28;20024;-72
2021/12/18 09:20:20;;;;;;;10.95;3.88;;;;;;;;;;5304968;28;20429;-72
2021/12/18 09:22:51;;;;;;;5.47;1.83;;;;;;;;;;5303429;28;20028;-71
2021/12/18 09:25:22;;;;;;;8.50;3.40;;;;;;;;;;5304448;28;20070;-71
2021/12/18 09:27:57;;;;;;;8.85;3.38;;;;;;;;;;5304082;28;20066;-71
2021/12/18 09:30:28;;;;;;;9.27;3.95;;;;;;;;;;5293256;28;20873;-71
2021/12/18 09:32:59;;;;;;;7.35;2.92;;;;;;;;;;5320543;28;20031;-72
2021/12/18 09:35:30;;;;;;;6.78;2.50;;;;;;;;;;5324600;28;20054;-72
2021/12/18 09:38:02;;;;;;;8.32;3.44;;;;;;;;;;5324513;28;20019;-72
2021/12/18 09:40:33;;;;;;;8.80;4.07;;;;;;;;;;5309085;28;20028;-72
2021/12/18 09:43:05;;;;;;;9.95;3.95;;;;;;;;;;5319387;28;20071;-71
2021/12/18 09:45:36;;;;;;;8.95;4.22;;;;;;;;;;5324825;28;20035;-73
2021/12/18 09:48:07;;;;;;;8.32;3.25;;;;;;;;;;5325329;28;20103;-73
2021/12/18 09:50:41;;;;;;;8.50;2.88;;;;;;;;;;5323805;28;20440;-72
2021/12/18 09:53:13;;;;;;;9.02;3.72;;;;;;;;;;5325182;28;20026;-72
2021/12/18 09:55:44;;;;;;;11.18;4.43;;;;;;;;;;5324853;28;20454;-72
2021/12/18 09:58:15;;;;;;;8.82;4.30;;;;;;;;;;5324795;28;20048;-72
2021/12/18 10:00:46;;;;;;;10.95;4.72;;;;;;;;;;5324401;28;20051;-72
2021/12/18 10:03:17;;;;;;;8.88;3.84;;;;;;;;;;5325334;28;20019;-72
2021/12/18 10:05:49;;;;;;;8.65;3.60;;;;;;;;;;5323999;28;20067;-73
2021/12/18 10:08:21;;;;;;;10.18;4.60;;;;;;;;;;5324112;27;20030;-72
2021/12/18 10:11:02;;;;;;;9.35;4.03;;;;;;;;;;5322847;28;20054;-73
2021/12/18 10:13:50;;;;;;;11.73;4.70;;;;;;;;;;5323826;28;20015;-71
2021/12/18 10:16:22;;;;;;;9.18;4.13;;;;;;;;;;5325014;28;20102;-71
2021/12/18 10:18:55;;;;;;;8.13;3.60;;;;;;;;;;5323684;27;20020;-72
2021/12/18 10:21:27;;;;;;;6.85;3.58;;;;;;;;;;5324734;28;20026;-72
2021/12/18 10:24:13;;;;;;;5.88;2.78;;;;;;;;;;5324077;27;20102;-72
2021/12/18 10:26:45;;;;;;;8.35;3.15;;;;;;;;;;5323517;28;20031;-73
2021/12/18 10:29:29;;;;;;;8.13;3.15;;;;;;;;;;5324702;28;20019;-73
2021/12/18 10:32:05;;;;;;;6.45;2.38;;;;;;;;;;5320902;28;20130;-73
2021/12/18 10:34:37;;;;;;;7.55;2.75;;;;;;;;;;5323181;28;20026;-73
2021/12/18 10:37:08;;;;;;;4.95;1.90;;;;;;;;;;5323345;28;20015;-73
2021/12/18 10:39:59;;;;;;;4.65;1.60;;;;;;;;;;5321537;28;20031;-72
2021/12/18 10:42:41;;;;;;;6.22;2.28;;;;;;;;;;5322284;28;20376;-73
2021/12/18 10:45:14;;;;;;;3.88;1.55;;;;;;;;;;5322560;28;20027;-74
2021/12/18 10:47:51;;;;;;;4.32;2.03;;;;;;;;;;5321960;28;20016;-74
2021/12/18 10:50:25;;;;;;;5.82;2.28;;;;;;;;;;5322964;28;20465;-74
2021/12/18 10:52:57;;;;;;;4.50;1.83;;;;;;;;;;5321450;28;20035;-72
2021/12/18 10:55:31;;;;;;;3.58;1.63;;;;;;;;;;5323196;28;20111;-73
2021/12/18 10:58:03;;;;;;;4.78;1.88;;;;;;;;;;5322009;28;20019;-74
2021/12/18 11:01:00;;;;;;;3.85;1.20;;;;;;;;;;5322221;28;20019;-74
2021/12/18 11:03:39;;;;;;;2.83;1.05;;;;;;;;;;5291049;28;20028;-72
2021/12/18 11:06:20;;;;;;;2.90;1.00;;;;;;;;;;5323023;28;20023;-72
2021/12/18 11:09:06;;;;;;;2.85;0.95;;;;;;;;;;5321573;28;20019;-72
2021/12/18 11:14:21;;;;;;;2.83;1.00;;;;;;;;;;5322078;28;20085;-72
2021/12/18 11:16:57;;;;;;;2.05;0.80;;;;;;;;;;5322534;28;20027;-72
2021/12/18 11:19:29;;;;;;;2.03;0.75;;;;;;;;;;5322865;28;20011;-72
2021/12/18 11:22:11;;;;;;;1.98;0.70;;;;;;;;;;5321229;28;20019;-72
2021/12/18 11:24:54;;;;;;;3.30;1.00;;;;;;;;;;5315081;28;20015;-72
2021/12/18 11:27:25;;;;;;;3.22;1.20;;;;;;;;;;5320986;28;20076;-73
2021/12/18 11:29:57;;;;;;;3.17;1.42;;;;;;;;;;5325920;28;20134;-72
2021/12/18 11:32:29;;;;;;;3.08;1.13;;;;;;;;;;5327081;28;20015;-73
2021/12/18 11:35:04;;;;;;;2.42;1.40;;;;;;;;;;5325941;28;20015;-73
2021/12/18 11:37:39;;;;;;;3.10;1.13;;;;;;;;;;5326807;28;20035;-73
2021/12/18 11:40:12;;;;;;;4.03;2.00;;;;;;;;;;5326960;28;20026;-72
2021/12/18 11:42:43;;;;;;;4.38;2.13;;;;;;;;;;5325387;28;20102;-72
2021/12/18 11:45:14;;;;;;;6.05;2.58;;;;;;;;;;5326816;28;20122;-72
2021/12/18 11:47:53;;;;;;;5.47;2.78;;;;;;;;;;5326394;28;20355;-72
2021/12/18 11:50:36;;;;;;;7.43;2.67;;;;;;;;;;5325655;28;20020;-73
2021/12/18 11:53:08;;;;;;;6.20;2.55;;;;;;;;;;5326517;28;20062;-72
2021/12/18 11:55:48;;;;;;;4.90;2.60;;;;;;;;;;5325927;28;20488;-72
2021/12/18 11:58:24;;;;;;;5.00;2.40;;;;;;;;;;5325986;28;20046;-73
2021/12/18 12:01:00;;;;;;;5.05;2.55;;;;;;;;;;5325902;28;20019;-73
2021/12/18 12:03:43;;;;;;;8.52;3.08;;;;;;;;;;5325244;28;20044;-72
2021/12/18 12:06:20;;;;;;;6.55;2.65;;;;;;;;;;5326613;28;20106;-73
2021/12/18 12:09:21;;;;;;;5.88;2.15;;;;;;;;;;5325935;28;20024;-73
2021/12/18 12:12:06;;;;;;;3.67;1.50;;;;;;;;;;5325149;28;20019;-75
2021/12/18 12:14:39;;;;;;;4.38;1.42;;;;;;;;;;5325661;28;20016;-75
2021/12/18 12:17:10;;;;;;;3.30;1.65;;;;;;;;;;5325277;28;20049;-76
2021/12/18 12:19:43;;;;;;;3.62;1.40;;;;;;;;;;5325591;28;20023;-75
2021/12/18 12:22:32;;;;;;;2.92;1.10;;;;;;;;;;5326162;28;20055;-75
2021/12/18 12:25:05;;;;;;;2.58;1.23;;;;;;;;;;5325002;28;20459;-75
2021/12/18 12:27:47;;;;;;;4.25;1.95;;;;;;;;;;5325774;28;20012;-76
2021/12/18 12:30:32;;;;;;;6.47;2.20;;;;;;;;;;5325557;28;20493;-75
2021/12/18 12:33:05;;;;;;;5.32;2.00;;;;;;;;;;5324468;28;20023;-75
2021/12/18 12:35:52;;;;;;;3.85;1.63;;;;;;;;;;5325708;28;20099;-75
2021/12/18 12:38:25;;;;;;;3.55;1.70;;;;;;;;;;5324972;28;20034;-76
2021/12/18 12:40:57;;;;;;;2.72;1.60;;;;;;;;;;5324997;27;20395;-75
2021/12/18 12:43:37;;;;;;;2.45;1.20;;;;;;;;;;5324993;28;20055;-75
2021/12/18 12:46:14;;;;;;;4.03;1.70;;;;;;;;;;5324988;28;20028;-76
2021/12/18 12:48:59;;;;;;;3.50;1.60;;;;;;;;;;5325261;28;20016;-76
2021/12/18 12:51:49;;;;;;;2.90;1.67;;;;;;;;;;5325512;28;20027;-76
2021/12/18 12:54:38;;;;;;;3.38;1.90;;;;;;;;;;5324888;28;20028;-75
2021/12/18 12:57:22;;;;;;;3.85;1.63;;;;;;;;;;5324807;28;20092;-76
2021/12/18 12:59:59;;;;;;;2.17;1.25;;;;;;;;;;5313774;28;20390;-75
2021/12/18 13:02:31;;;;;;;3.45;1.17;;;;;;;;;;5324974;28;20032;-75
2021/12/18 13:05:03;;;;;;;3.00;0.85;;;;;;;;;;5324217;28;20053;-75
2021/12/18 13:07:35;;;;;;;2.08;1.08;;;;;;;;;;5324126;28;20020;-74
2021/12/18 13:10:06;;;;;;;1.90;1.00;;;;;;;;;;5323725;28;20026;-76
2021/12/18 13:12:50;;;;;;;2.63;1.25;;;;;;;;;;5324473;28;20019;-74
2021/12/18 13:15:22;;;;;;;2.15;1.25;;;;;;;;;;5324350;28;20015;-75
2021/12/18 13:18:05;;;;;;;3.03;1.70;;;;;;;;;;5324136;28;20110;-76
2021/12/18 13:20:41;;;;;;;3.42;1.15;;;;;;;;;;5324187;28;20028;-76
2021/12/18 13:23:17;;;;;;;2.67;1.35;;;;;;;;;;5324424;28;20044;-76
2021/12/18 13:25:54;;;;;;;2.90;1.58;;;;;;;;;;5324362;27;20540;-76
2021/12/18 13:28:26;;;;;;;3.72;1.52;;;;;;;;;;5324575;28;20020;-71
2021/12/18 13:30:57;;;;;;;3.92;1.52;;;;;;;;;;5325244;28;20741;-75
2021/12/18 13:33:29;;;;;;;2.67;1.60;;;;;;;;;;5325889;28;20007;-75
2021/12/18 13:36:01;;;;;;;2.33;1.30;;;;;;;;;;5324382;28;20027;-75
2021/12/18 13:38:34;;;;;;;2.50;1.85;;;;;;;;;;5325628;28;20081;-75
2021/12/18 13:41:09;;;;;;;3.75;2.15;;;;;;;;;;5325237;28;20022;-76
2021/12/18 13:43:41;;;;;;;2.63;1.42;;;;;;;;;;5324010;28;20054;-76
2021/12/18 13:46:13;;;;;;;2.30;1.20;;;;;;;;;;5325526;28;20023;-76
2021/12/18 13:48:47;;;;;;;2.25;1.40;;;;;;;;;;5323541;28;20451;-76
2021/12/18 13:51:19;;;;;;;3.83;1.80;;;;;;;;;;5325683;28;20023;-75
2021/12/18 13:53:55;;;;;;;2.72;1.70;;;;;;;;;;5324760;28;20348;-75
2021/12/18 13:56:28;;;;;;;3.50;2.63;;;;;;;;;;5324769;28;20022;-75
2021/12/18 13:59:11;;;;;;;5.18;2.58;;;;;;;;;;5324925;28;20019;-75
2021/12/18 14:01:43;;;;;;;6.18;3.38;;;;;;;;;;5324800;28;20039;-76
2021/12/18 14:04:15;;;;;;;4.63;2.35;;;;;;;;;;5324495;28;20007;-75
2021/12/18 14:06:47;;;;;;;7.60;3.90;;;;;;;;;;5324309;28;20019;-75
2021/12/18 14:09:21;;;;;;;4.90;3.28;;;;;;;;;;5325245;28;20347;-75
2021/12/18 14:11:56;;;;;;;5.05;3.30;;;;;;;;;;5323431;28;20026;-75
2021/12/18 14:14:48;;;;;;;5.78;3.63;;;;;;;;;;5324548;28;20020;-75
2021/12/18 14:17:25;;;;;;;6.75;4.28;;;;;;;;;;5324208;28;20027;-76
2021/12/18 14:20:08;;;;;;;11.75;4.95;;;;;;;;;;5322396;28;20024;-74
2021/12/18 14:22:40;;;;;;;7.75;5.30;;;;;;;;;;5323119;28;20023;-74
2021/12/18 14:25:13;;;;;;;7.82;5.72;;;;;;;;;;5322844;28;20405;-74
2021/12/18 14:27:45;;;;;;;11.50;8.93;;;;;;;;;;5322736;28;20024;-73
2021/12/18 14:30:23;;;;;;;9.50;5.22;;;;;;;;;;5323735;27;20047;-74
2021/12/18 14:33:04;;;;;;;9.48;6.10;;;;;;;;;;5321137;28;20024;-74
2021/12/18 14:35:46;;;;;;;7.47;6.00;;;;;;;;;;5323209;28;20026;-73
2021/12/18 14:38:18;;;;;;;9.10;7.10;;;;;;;;;;5322753;28;20019;-73
2021/12/18 14:40:59;;;;;;;7.35;5.72;;;;;;;;;;5322719;28;20023;-73
2021/12/18 14:43:31;;;;;;;8.07;6.97;;;;;;;;;;5323101;28;20119;-73
2021/12/18 14:46:02;;;;;;;8.23;5.82;;;;;;;;;;5321165;28;20031;-74
2021/12/18 14:48:34;;;;;;;7.68;5.38;;;;;;;;;;5322938;28;20103;-74
2021/12/18 14:51:05;;;;;;;10.05;6.78;;;;;;;;;;5322497;28;20020;-74
2021/12/18 14:53:37;;;;;;;15.25;9.88;;;;;;;;;;5322174;28;20376;-73
2021/12/18 14:56:14;;;;;;;11.48;7.32;;;;;;;;;;5323112;28;20016;-73
2021/12/18 14:58:45;;;;;;;11.18;8.18;;;;;;;;;;5322225;28;20023;-73
2021/12/18 15:01:17;;;;;;;52.36;38.28;;;;;;;;;;5321628;28;20030;-73
2021/12/18 15:03:50;;;;;;;132.25;71.53;;;;;;;;;;5322105;28;20016;-73
2021/12/18 15:06:22;;;;;;;22.63;13.40;;;;;;;;;;5322083;28;20470;-74
2021/12/18 15:09:12;;;;;;;16.27;9.85;;;;;;;;;;5322104;28;20020;-73
2021/12/18 15:11:46;;;;;;;43.50;34.30;;;;;;;;;;5321891;28;20020;-75
2021/12/18 15:14:18;;;;;;;24.15;19.40;;;;;;;;;;5322111;28;20038;-73
2021/12/18 15:16:59;;;;;;;28.38;24.25;;;;;;;;;;5322256;28;20015;-74
2021/12/18 15:19:31;;;;;;;19.65;15.35;;;;;;;;;;5322734;28;20119;-74
2021/12/18 15:22:04;;;;;;;11.30;9.85;;;;;;;;;;5321149;28;20051;-73
2021/12/18 15:24:36;;;;;;;13.60;10.50;;;;;;;;;;5322233;28;20107;-74
2021/12/18 15:27:08;;;;;;;9.77;7.70;;;;;;;;;;5321672;28;20032;-74
2021/12/18 15:29:40;;;;;;;8.90;6.75;;;;;;;;;;5322229;28;20020;-74
2021/12/18 15:32:12;;;;;;;8.63;6.80;;;;;;;;;;5322530;28;20077;-75
2021/12/18 15:34:44;;;;;;;10.95;8.80;;;;;;;;;;5321237;28;20400;-75
2021/12/18 15:37:15;;;;;;;10.73;9.18;;;;;;;;;;5322021;28;20072;-73
2021/12/18 15:39:46;;;;;;;14.10;11.32;;;;;;;;;;5322156;28;20024;-73
2021/12/18 15:42:22;;;;;;;14.14;10.94;;;;;;;;;;5321634;28;20032;-73
2021/12/18 15:44:53;;;;;;;11.57;8.80;;;;;;;;;;5321975;28;20082;-73